createdAt,value
2022-09-01T00:00:13.783Z,89.55
2022-09-01T00:01:21.085Z,89.96
2022-09-01T00:02:27.280Z,90.36
2022-09-01T00:03:29.970Z,90.70
2022-09-01T00:04:32.365Z,90.58
2022-09-01T00:05:34.415Z,90.63
2022-09-01T00:06:36.805Z,90.76
2022-09-01T00:07:38.603Z,91.08
2022-09-01T00:08:40.526Z,91.05
2022-09-01T00:09:42.399Z,91.02
2022-09-01T00:10:44.352Z,90.72
2022-09-01T00:11:50.397Z,90.47
2022-09-01T00:12:52.932Z,90.38
2022-09-01T00:13:55.845Z,90.53
2022-09-01T00:14:57.733Z,90.00
2022-09-01T00:16:04.550Z,90.15
2022-09-01T00:17:07.980Z,90.08
2022-09-01T00:18:09.806Z,89.51
2022-09-01T00:19:11.631Z,89.82
2022-09-01T00:20:17.080Z,89.59
2022-09-01T00:21:24.539Z,89.50
2022-09-01T00:22:26.542Z,89.38
2022-09-01T00:23:28.725Z,89.71
2022-09-01T00:24:30.935Z,89.43
2022-09-01T00:25:32.790Z,89.50
2022-09-01T00:26:34.760Z,89.33
2022-09-01T00:27:36.995Z,89.51
2022-09-01T00:28:39.842Z,89.54
2022-09-01T00:29:43.347Z,89.37
2022-09-01T00:30:45.845Z,89.71
2022-09-01T00:31:48.242Z,89.88
2022-09-01T00:32:50.044Z,89.75
2022-09-01T00:33:52.715Z,89.78
2022-09-01T00:34:54.590Z,89.90
2022-09-01T00:35:56.538Z,89.79
2022-09-01T00:36:58.413Z,89.46
2022-09-01T00:38:00.270Z,89.60
2022-09-01T00:39:03.956Z,89.47
2022-09-01T00:40:06.610Z,89.24
2022-09-01T00:41:08.637Z,89.52
2022-09-01T00:42:11.625Z,89.17
2022-09-01T00:43:44.674Z,89.50
2022-09-01T00:44:46.691Z,89.27
2022-09-01T00:45:50.135Z,88.94
2022-09-01T00:46:55.190Z,89.04
2022-09-01T00:47:57.664Z,88.87
2022-09-01T00:49:02.324Z,88.75
2022-09-01T00:50:06.588Z,88.82
2022-09-01T00:51:09.778Z,88.89
2022-09-01T00:52:21.335Z,88.90
2022-09-01T00:53:23.794Z,89.35
2022-09-01T00:54:27.958Z,89.14
2022-09-01T00:55:32.677Z,88.96
2022-09-01T00:56:38.002Z,89.13
2022-09-01T00:57:40.009Z,88.94
2022-09-01T00:58:42.749Z,89.58
2022-09-01T00:59:50.029Z,89.66
2022-09-01T01:00:53.060Z,89.56
2022-09-01T01:01:55.633Z,89.80
2022-09-01T01:02:57.979Z,89.56
2022-09-01T01:04:02.919Z,89.58
2022-09-01T01:05:06.134Z,89.36
2022-09-01T01:06:09.476Z,89.33
2022-09-01T01:07:12.318Z,89.57
2022-09-01T01:08:14.130Z,89.46
2022-09-01T01:09:20.791Z,89.47
2022-09-01T01:10:23.424Z,89.36
2022-09-01T01:11:26.594Z,89.45
2022-09-01T01:12:31.107Z,89.20
2022-09-01T01:13:36.520Z,89.00
2022-09-01T01:14:40.254Z,89.24
2022-09-01T01:15:44.900Z,89.08
2022-09-01T01:16:48.425Z,88.86
2022-09-01T01:17:50.723Z,89.15
2022-09-01T01:18:53.251Z,88.80
2022-09-01T01:20:14.686Z,89.10
2022-09-01T01:21:57.646Z,88.81
2022-09-01T01:23:10.445Z,88.98
2022-09-01T01:24:28.556Z,89.49
2022-09-01T01:25:36.255Z,89.17
2022-09-01T01:26:38.016Z,89.42
2022-09-01T01:27:43.111Z,89.24
2022-09-01T01:28:45.106Z,89.51
2022-09-01T01:29:47.951Z,89.57
2022-09-01T01:30:52.717Z,89.49
2022-09-01T01:31:54.885Z,89.52
2022-09-01T01:32:58.060Z,89.65
2022-09-01T01:34:02.060Z,89.61
2022-09-01T01:35:06.227Z,89.52
2022-09-01T01:36:19.623Z,89.37
2022-09-01T01:37:25.709Z,89.65
2022-09-01T01:38:28.211Z,89.41
2022-09-01T01:39:30.001Z,89.47
2022-09-01T01:40:31.798Z,89.10
2022-09-01T01:41:34.298Z,89.20
2022-09-01T01:42:38.187Z,89.35
2022-09-01T01:43:40.036Z,89.28
2022-09-01T01:44:42.849Z,89.11
2022-09-01T01:45:44.741Z,89.19
2022-09-01T01:46:50.533Z,89.40
2022-09-01T01:47:56.665Z,89.60
2022-09-01T01:48:58.647Z,89.58
2022-09-01T01:50:00.478Z,89.67
2022-09-01T01:51:02.936Z,89.95
2022-09-01T01:52:04.986Z,89.79
2022-09-01T01:53:12.306Z,89.76
2022-09-01T01:54:15.984Z,89.59
2022-09-01T01:55:19.647Z,89.67
2022-09-01T01:56:25.841Z,89.70
2022-09-01T01:57:33.222Z,89.59
2022-09-01T01:58:36.365Z,90.00
2022-09-01T01:59:41.077Z,90.66
2022-09-01T02:00:44.781Z,90.78
2022-09-01T02:01:49.612Z,91.39
2022-09-01T02:02:54.736Z,91.58
2022-09-01T02:03:57.267Z,92.07
2022-09-01T02:05:02.263Z,91.96
2022-09-01T02:06:08.044Z,91.66
2022-09-01T02:07:12.239Z,91.69
2022-09-01T02:08:16.039Z,91.53
2022-09-01T02:09:19.495Z,91.17
2022-09-01T02:10:22.054Z,91.05
2022-09-01T02:11:26.447Z,91.12
2022-09-01T02:12:28.217Z,90.84
2022-09-01T02:13:32.863Z,90.70
2022-09-01T02:14:34.816Z,90.73
2022-09-01T02:15:43.665Z,90.56
2022-09-01T02:16:45.723Z,90.53
2022-09-01T02:17:49.104Z,90.85
2022-09-01T02:18:51.494Z,91.03
2022-09-01T02:19:58.100Z,90.92
2022-09-01T02:21:01.312Z,90.73
2022-09-01T02:22:03.148Z,90.92
2022-09-01T02:23:10.958Z,90.72
2022-09-01T02:24:13.164Z,91.37
2022-09-01T02:25:16.901Z,91.39
2022-09-01T02:26:19.378Z,91.17
2022-09-01T02:27:23.501Z,91.44
2022-09-01T02:28:25.385Z,91.13
2022-09-01T02:29:29.736Z,91.21
2022-09-01T02:30:35.089Z,90.93
2022-09-01T02:31:40.196Z,90.99
2022-09-01T02:32:42.139Z,90.69
2022-09-01T02:33:47.610Z,90.54
2022-09-01T02:34:53.932Z,90.50
2022-09-01T02:35:57.629Z,90.61
2022-09-01T02:36:59.547Z,90.22
2022-09-01T02:38:01.445Z,90.23
2022-09-01T02:39:04.152Z,90.57
2022-09-01T02:40:07.571Z,90.43
2022-09-01T02:41:09.405Z,90.64
2022-09-01T02:42:15.375Z,90.57
2022-09-01T02:43:20.802Z,90.90
2022-09-01T02:44:23.406Z,90.93
2022-09-01T02:45:25.447Z,90.86
2022-09-01T02:46:27.319Z,90.95
2022-09-01T02:47:29.729Z,91.27
2022-09-01T02:48:37.984Z,91.17
2022-09-01T02:49:40.954Z,90.87
2022-09-01T02:50:42.779Z,91.01
2022-09-01T02:51:45.864Z,91.00
2022-09-01T02:52:49.595Z,90.96
2022-09-01T02:53:53.118Z,91.19
2022-09-01T02:54:55.860Z,91.40
2022-09-01T02:55:59.801Z,91.07
2022-09-01T02:57:01.767Z,91.23
2022-09-01T02:58:03.982Z,91.21
2022-09-01T02:59:13.204Z,90.72
2022-09-01T03:00:33.704Z,90.52
2022-09-01T03:01:35.569Z,90.57
2022-09-01T03:02:37.533Z,90.28
2022-09-01T03:03:39.355Z,90.29
2022-09-01T03:04:41.190Z,90.26
2022-09-01T03:05:43.343Z,90.01
2022-09-01T03:06:45.666Z,90.09
2022-09-01T03:07:47.563Z,90.29
2022-09-01T03:08:49.495Z,90.07
2022-09-01T03:09:52.813Z,90.36
2022-09-01T03:10:54.585Z,90.24
2022-09-01T03:11:56.517Z,90.08
2022-09-01T03:13:09.294Z,90.32
2022-09-01T03:14:12.562Z,90.00
2022-09-01T03:15:14.329Z,90.37
2022-09-01T03:16:16.551Z,90.25
2022-09-01T03:17:18.396Z,90.23
2022-09-01T03:18:20.422Z,90.15
2022-09-01T03:19:22.346Z,90.04
2022-09-01T03:20:24.114Z,90.12
2022-09-01T03:21:26.285Z,90.01
2022-09-01T03:22:29.845Z,89.92
2022-09-01T03:23:31.720Z,89.92
2022-09-01T03:24:33.623Z,90.08
2022-09-01T03:25:37.052Z,89.90
2022-09-01T03:26:38.943Z,90.14
2022-09-01T03:27:40.963Z,90.03
2022-09-01T03:28:42.777Z,90.32
2022-09-01T03:29:44.698Z,90.31
2022-09-01T03:30:47.739Z,90.06
2022-09-01T03:31:49.808Z,90.20
2022-09-01T03:32:52.322Z,90.38
2022-09-01T03:33:57.148Z,90.03
2022-09-01T03:35:00.124Z,89.92
2022-09-01T03:36:01.980Z,90.22
2022-09-01T03:37:08.212Z,90.13
2022-09-01T03:38:13.057Z,89.85
2022-09-01T03:39:16.864Z,89.89
2022-09-01T03:40:19.362Z,89.86
2022-09-01T03:41:25.337Z,90.02
2022-09-01T03:42:31.357Z,89.91
2022-09-01T03:43:36.136Z,89.86
2022-09-01T03:44:41.249Z,89.79
2022-09-01T03:45:43.716Z,89.62
2022-09-01T03:46:45.959Z,89.70
2022-09-01T03:47:48.558Z,89.64
2022-09-01T03:48:52.677Z,89.68
2022-09-01T03:49:55.899Z,89.48
2022-09-01T03:51:02.913Z,89.64
2022-09-01T03:52:04.804Z,89.64
2022-09-01T03:53:08.104Z,89.46
2022-09-01T03:54:10.463Z,89.49
2022-09-01T03:55:12.861Z,89.66
2022-09-01T03:56:15.534Z,89.51
2022-09-01T03:57:17.323Z,89.35
2022-09-01T03:58:21.580Z,89.42
2022-09-01T03:59:24.913Z,89.62
2022-09-01T04:00:30.190Z,89.42
2022-09-01T04:01:35.082Z,89.68
2022-09-01T04:02:36.995Z,89.35
2022-09-01T04:03:39.959Z,89.33
2022-09-01T04:04:41.967Z,89.08
2022-09-01T04:05:44.839Z,89.27
2022-09-01T04:06:46.769Z,89.43
2022-09-01T04:07:50.560Z,89.12
2022-09-01T04:09:03.225Z,89.34
2022-09-01T04:10:05.747Z,89.28
2022-09-01T04:11:16.701Z,89.36
2022-09-01T04:12:18.512Z,89.29
2022-09-01T04:13:22.884Z,89.17
2022-09-01T04:14:30.042Z,89.08
2022-09-01T04:15:35.281Z,89.34
2022-09-01T04:16:55.808Z,89.02
2022-09-01T04:18:20.574Z,89.00
2022-09-01T04:19:27.991Z,89.22
2022-09-01T04:20:29.822Z,88.90
2022-09-01T04:21:32.260Z,89.02
2022-09-01T04:22:36.228Z,89.02
2022-09-01T04:23:38.015Z,89.11
2022-09-01T04:24:44.862Z,88.99
2022-09-01T04:25:49.537Z,88.89
2022-09-01T04:26:52.540Z,89.24
2022-09-01T04:27:57.419Z,89.25
2022-09-01T04:28:59.269Z,89.26
2022-09-01T04:30:01.760Z,89.16
2022-09-01T04:31:06.238Z,89.10
2022-09-01T04:32:13.395Z,89.01
2022-09-01T04:33:17.139Z,89.33
2022-09-01T04:34:19.022Z,89.33
2022-09-01T04:35:32.889Z,89.19
2022-09-01T04:36:45.089Z,89.54
2022-09-01T04:37:47.899Z,90.03
2022-09-01T04:38:54.765Z,90.58
2022-09-01T04:39:57.743Z,90.64
2022-09-01T04:41:03.146Z,90.62
2022-09-01T04:42:07.045Z,90.73
2022-09-01T04:43:09.623Z,90.51
2022-09-01T04:44:11.498Z,90.47
2022-09-01T04:45:17.405Z,90.25
2022-09-01T04:46:23.151Z,90.30
2022-09-01T04:47:35.509Z,90.16
2022-09-01T04:48:38.707Z,90.34
2022-09-01T04:49:40.450Z,90.46
2022-09-01T04:50:42.269Z,90.44
2022-09-01T04:51:45.194Z,90.72
2022-09-01T04:52:48.059Z,90.74
2022-09-01T04:53:50.906Z,90.76
2022-09-01T04:54:52.720Z,90.81
2022-09-01T04:55:55.044Z,90.76
2022-09-01T04:56:56.952Z,90.70
2022-09-01T04:57:59.989Z,90.62
2022-09-01T04:59:07.176Z,90.62
2022-09-01T05:00:22.711Z,90.65
2022-09-01T05:01:25.886Z,90.27
2022-09-01T05:02:29.251Z,90.74
2022-09-01T05:03:32.297Z,90.89
2022-09-01T05:04:34.207Z,91.19
2022-09-01T05:05:39.616Z,91.43
2022-09-01T05:06:42.845Z,91.48
2022-09-01T05:07:44.696Z,91.66
2022-09-01T05:08:46.779Z,91.32
2022-09-01T05:09:48.686Z,91.29
2022-09-01T05:10:53.573Z,90.92
2022-09-01T05:11:56.851Z,91.21
2022-09-01T05:12:58.786Z,90.82
2022-09-01T05:14:00.599Z,90.77
2022-09-01T05:15:09.229Z,90.64
2022-09-01T05:16:13.438Z,90.44
2022-09-01T05:17:17.570Z,90.53
2022-09-01T05:18:28.485Z,90.35
2022-09-01T05:19:31.178Z,90.33
2022-09-01T05:20:33.023Z,90.33
2022-09-01T05:21:38.090Z,90.35
2022-09-01T05:22:41.361Z,90.36
2022-09-01T05:23:47.265Z,89.96
2022-09-01T05:24:55.300Z,90.30
2022-09-01T05:25:57.536Z,90.08
2022-09-01T05:27:00.618Z,90.31
2022-09-01T05:28:03.584Z,90.33
2022-09-01T05:29:10.935Z,89.96
2022-09-01T05:30:12.919Z,90.43
2022-09-01T05:31:14.999Z,90.34
2022-09-01T05:32:17.058Z,90.44
2022-09-01T05:33:21.815Z,90.54
2022-09-01T05:34:27.460Z,90.75
2022-09-01T05:35:32.786Z,90.93
2022-09-01T05:36:34.915Z,90.88
2022-09-01T05:37:37.824Z,91.05
2022-09-01T05:38:42.741Z,90.83
2022-09-01T05:39:44.619Z,90.63
2022-09-01T05:40:55.473Z,90.80
2022-09-01T05:41:58.891Z,90.63
2022-09-01T05:43:01.234Z,90.50
2022-09-01T05:44:08.371Z,90.23
2022-09-01T05:45:12.073Z,90.32
2022-09-01T05:46:17.935Z,90.30
2022-09-01T05:47:21.931Z,90.30
2022-09-01T05:48:24.139Z,90.14
2022-09-01T05:49:28.964Z,90.17
2022-09-01T05:50:31.719Z,90.18
2022-09-01T05:51:45.431Z,89.89
2022-09-01T05:52:48.186Z,90.10
2022-09-01T05:53:55.302Z,89.83
2022-09-01T05:55:00.512Z,90.10
2022-09-01T05:56:08.087Z,89.95
2022-09-01T05:57:32.563Z,89.76
2022-09-01T05:59:54.442Z,89.82
2022-09-01T06:00:59.438Z,89.72
2022-09-01T06:02:01.377Z,89.89
2022-09-01T06:03:04.987Z,89.96
2022-09-01T06:04:08.142Z,89.59
2022-09-01T06:05:11.277Z,89.83
2022-09-01T06:06:13.091Z,89.78
2022-09-01T06:07:16.600Z,90.02
2022-09-01T06:08:24.100Z,90.19
2022-09-01T06:09:25.882Z,90.16
2022-09-01T06:10:28.714Z,89.96
2022-09-01T06:11:33.415Z,90.12
2022-09-01T06:12:35.295Z,90.06
2022-09-01T06:13:37.529Z,89.66
2022-09-01T06:14:39.402Z,89.86
2022-09-01T06:15:41.261Z,89.93
2022-09-01T06:16:44.535Z,89.73
2022-09-01T06:17:47.398Z,89.80
2022-09-01T06:18:50.752Z,89.86
2022-09-01T06:19:57.116Z,89.74
2022-09-01T06:20:59.064Z,89.85
2022-09-01T06:22:02.000Z,89.96
2022-09-01T06:23:03.909Z,89.62
2022-09-01T06:24:07.308Z,89.66
2022-09-01T06:25:09.732Z,89.66
2022-09-01T06:26:19.000Z,89.81
2022-09-01T06:27:21.485Z,89.90
2022-09-01T06:28:24.143Z,89.58
2022-09-01T06:29:25.945Z,89.93
2022-09-01T06:30:27.863Z,89.74
2022-09-01T06:31:34.366Z,90.03
2022-09-01T06:32:38.741Z,89.73
2022-09-01T06:33:41.074Z,89.90
2022-09-01T06:34:44.780Z,89.86
2022-09-01T06:35:47.950Z,89.81
2022-09-01T06:36:52.006Z,89.80
2022-09-01T06:37:54.564Z,89.89
2022-09-01T06:38:56.403Z,89.59
2022-09-01T06:39:58.165Z,89.68
2022-09-01T06:41:04.505Z,89.63
2022-09-01T06:42:07.095Z,89.42
2022-09-01T06:43:12.472Z,89.63
2022-09-01T06:44:15.057Z,89.53
2022-09-01T06:45:18.123Z,89.39
2022-09-01T06:46:20.728Z,89.47
2022-09-01T06:47:22.672Z,89.32
2022-09-01T06:48:24.605Z,89.37
2022-09-01T06:49:32.809Z,89.27
2022-09-01T06:51:56.684Z,89.26
2022-09-01T06:54:35.891Z,89.57
2022-09-01T06:55:42.052Z,89.34
2022-09-01T06:56:44.912Z,89.30
2022-09-01T06:58:09.543Z,89.55
2022-09-01T06:59:15.843Z,89.59
2022-09-01T07:00:20.519Z,90.02
2022-09-01T07:01:24.336Z,90.22
2022-09-01T07:02:27.016Z,90.48
2022-09-01T07:03:29.118Z,90.39
2022-09-01T07:04:32.247Z,90.83
2022-09-01T07:07:53.258Z,90.70
2022-09-01T07:08:20.488Z,90.95
2022-09-01T07:09:47.285Z,90.57
2022-09-01T07:13:31.046Z,91.35
2022-09-01T07:16:30.112Z,91.30
2022-09-01T07:17:23.139Z,92.15
2022-09-01T07:18:26.021Z,92.15
2022-09-01T07:19:48.335Z,91.89
2022-09-01T07:21:36.917Z,92.09
2022-09-01T07:22:35.617Z,91.72
2022-09-01T07:25:11.754Z,91.35
2022-09-01T07:26:25.797Z,91.14
2022-09-01T07:27:36.090Z,91.25
2022-09-01T07:28:42.417Z,91.23
2022-09-01T07:29:44.293Z,91.38
2022-09-01T07:30:48.907Z,91.26
2022-09-01T07:34:39.630Z,91.39
2022-09-01T07:36:25.723Z,91.60
2022-09-01T07:39:51.239Z,91.59
2022-09-01T07:42:30.687Z,90.96
2022-09-01T07:43:40.310Z,91.08
2022-09-01T07:44:44.117Z,90.89
2022-09-01T07:46:36.723Z,90.78
2022-09-01T07:47:20.179Z,90.71
2022-09-01T07:50:12.358Z,90.65
2022-09-01T07:51:35.495Z,90.13
2022-09-01T07:52:29.496Z,90.28
2022-09-01T07:53:33.378Z,90.21
2022-09-01T07:54:37.606Z,90.17
2022-09-01T07:55:44.042Z,90.24
2022-09-01T07:56:46.031Z,90.13
2022-09-01T07:57:47.946Z,89.89
2022-09-01T07:58:50.660Z,89.66
2022-09-01T07:59:55.802Z,89.76
2022-09-01T08:01:03.115Z,89.67
2022-09-01T08:02:06.011Z,89.94
2022-09-01T08:03:08.133Z,89.74
2022-09-01T08:04:10.103Z,90.04
2022-09-01T08:05:14.717Z,90.04
2022-09-01T08:06:21.511Z,89.83
2022-09-01T08:07:23.508Z,89.96
2022-09-01T08:08:29.114Z,89.82
2022-09-01T08:09:38.131Z,89.91
2022-09-01T08:10:48.982Z,89.93
2022-09-01T08:12:01.647Z,89.77
2022-09-01T08:13:04.299Z,90.05
2022-09-01T08:14:06.497Z,90.07
2022-09-01T08:15:13.005Z,89.84
2022-09-01T08:16:18.101Z,89.97
2022-09-01T08:17:51.675Z,90.16
2022-09-01T08:18:50.761Z,91.22
2022-09-01T08:19:54.054Z,91.97
2022-09-01T08:20:55.978Z,92.35
2022-09-01T08:21:57.855Z,92.37
2022-09-01T08:22:59.694Z,92.22
2022-09-01T08:24:01.585Z,92.13
2022-09-01T08:25:03.498Z,91.54
2022-09-01T08:26:09.923Z,91.31
2022-09-01T08:27:11.752Z,91.61
2022-09-01T08:28:14.342Z,91.43
2022-09-01T08:29:16.258Z,91.30
2022-09-01T08:30:18.287Z,91.32
2022-09-01T08:31:20.369Z,90.93
2022-09-01T08:32:22.725Z,90.96
2022-09-01T08:33:26.399Z,90.89
2022-09-01T08:34:28.300Z,91.02
2022-09-01T08:35:30.227Z,90.68
2022-09-01T08:36:33.639Z,90.50
2022-09-01T08:37:35.682Z,90.27
2022-09-01T08:38:37.498Z,89.88
2022-09-01T08:39:39.544Z,89.36
2022-09-01T08:40:42.587Z,88.89
2022-09-01T08:41:56.743Z,88.31
2022-09-01T08:43:20.966Z,87.81
2022-09-01T08:44:32.935Z,87.26
2022-09-01T08:45:47.747Z,87.08
2022-09-01T08:46:54.683Z,87.26
2022-09-01T08:48:36.757Z,86.50
2022-09-01T08:49:26.902Z,86.89
2022-09-01T08:50:29.422Z,86.60
2022-09-01T08:51:31.240Z,86.46
2022-09-01T08:52:37.710Z,86.23
2022-09-01T08:53:52.766Z,86.01
2022-09-01T08:54:59.113Z,85.87
2022-09-01T08:56:01.054Z,85.73
2022-09-01T08:57:07.028Z,85.62
2022-09-01T08:58:10.444Z,85.64
2022-09-01T08:59:12.861Z,85.60
2022-09-01T09:00:18.434Z,85.92
2022-09-01T09:01:31.771Z,85.27
2022-09-01T09:02:54.205Z,84.92
2022-09-01T09:04:25.136Z,84.30
2022-09-01T09:05:26.944Z,83.52
2022-09-01T09:06:35.854Z,83.38
2022-09-01T09:07:37.683Z,83.69
2022-09-01T09:08:39.422Z,83.53
2022-09-01T09:09:49.307Z,83.31
2022-09-01T09:11:04.031Z,83.20
2022-09-01T09:12:23.874Z,83.09
2022-09-01T09:13:36.659Z,83.32
2022-09-01T09:14:44.346Z,82.97
2022-09-01T09:16:15.542Z,82.76
2022-09-01T09:17:20.224Z,82.39
2022-09-01T09:18:39.287Z,82.58
2022-09-01T09:19:43.059Z,81.75
2022-09-01T09:20:45.643Z,81.25
2022-09-01T09:21:48.736Z,81.12
2022-09-01T09:22:51.361Z,80.51
2022-09-01T09:24:01.260Z,80.90
2022-09-01T09:25:07.046Z,81.10
2022-09-01T09:26:08.856Z,80.92
2022-09-01T09:27:11.179Z,80.61
2022-09-01T09:28:14.914Z,79.94
2022-09-01T09:29:16.999Z,79.71
2022-09-01T09:30:24.691Z,79.95
2022-09-01T09:31:37.618Z,79.81
2022-09-01T09:33:19.944Z,79.43
2022-09-01T09:34:16.416Z,79.51
2022-09-01T09:35:19.180Z,79.22
2022-09-01T09:36:25.611Z,79.42
2022-09-01T09:37:29.979Z,79.58
2022-09-01T09:38:33.857Z,79.65
2022-09-01T09:39:37.236Z,79.37
2022-09-01T09:41:06.710Z,79.43
2022-09-01T09:42:21.260Z,79.15
2022-09-01T09:43:25.543Z,78.47
2022-09-01T09:44:32.139Z,78.39
2022-09-01T09:45:41.675Z,78.52
2022-09-01T09:46:45.011Z,78.31
2022-09-01T09:47:47.112Z,78.34
2022-09-01T09:48:50.611Z,78.27
2022-09-01T09:50:10.726Z,78.66
2022-09-01T09:51:16.600Z,77.72
2022-09-01T09:52:19.429Z,77.58
2022-09-01T09:53:27.126Z,77.99
2022-09-01T09:54:33.264Z,77.37
2022-09-01T09:55:35.081Z,76.42
2022-09-01T09:56:36.954Z,77.22
2022-09-01T09:57:39.984Z,77.56
2022-09-01T09:58:43.558Z,76.87
2022-09-01T10:00:03.361Z,76.97
2022-09-01T10:01:17.740Z,76.68
2022-09-01T10:02:31.394Z,76.11
2022-09-01T10:03:57.360Z,76.45
2022-09-01T10:05:00.574Z,76.91
2022-09-01T10:06:02.788Z,75.16
2022-09-01T10:07:23.763Z,74.49
2022-09-01T10:08:28.401Z,74.96
2022-09-01T10:09:30.552Z,75.00
2022-09-01T10:10:32.341Z,75.60
2022-09-01T10:11:42.579Z,73.72
2022-09-01T10:12:45.849Z,74.34
2022-09-01T10:13:47.845Z,74.03
2022-09-01T10:15:05.546Z,74.66
2022-09-01T10:16:21.874Z,74.90
2022-09-01T10:17:28.866Z,75.07
2022-09-01T10:18:42.069Z,74.48
2022-09-01T10:19:49.565Z,75.09
2022-09-01T10:21:00.685Z,75.63
2022-09-01T10:22:03.743Z,75.22
2022-09-01T10:23:05.914Z,75.29
2022-09-01T10:24:30.989Z,75.82
2022-09-01T10:25:35.325Z,76.08
2022-09-01T10:26:39.304Z,75.67
2022-09-01T10:27:44.435Z,76.21
2022-09-01T10:29:15.843Z,76.30
2022-09-01T10:30:24.264Z,76.81
2022-09-01T10:31:29.529Z,76.65
2022-09-01T10:32:49.181Z,77.06
2022-09-01T10:33:53.053Z,77.19
2022-09-01T10:34:56.173Z,77.06
2022-09-01T10:36:01.467Z,76.60
2022-09-01T10:37:04.039Z,76.13
2022-09-01T10:38:11.919Z,76.62
2022-09-01T10:39:15.097Z,76.63
2022-09-01T10:40:31.370Z,76.95
2022-09-01T10:41:42.714Z,76.80
2022-09-01T10:42:49.096Z,76.88
2022-09-01T10:43:52.325Z,76.31
2022-09-01T10:44:58.150Z,76.08
2022-09-01T10:46:05.708Z,76.63
2022-09-01T10:47:30.385Z,75.69
2022-09-01T10:48:46.186Z,75.32
2022-09-01T10:49:50.582Z,74.16
2022-09-01T10:51:11.122Z,74.77
2022-09-01T10:52:38.837Z,74.37
2022-09-01T10:53:42.159Z,73.55
2022-09-01T10:54:51.805Z,73.99
2022-09-01T10:56:17.526Z,73.23
2022-09-01T10:57:27.038Z,71.80
2022-09-01T11:00:36.846Z,69.57
2022-09-01T11:01:48.911Z,69.02
2022-09-01T11:04:31.649Z,70.96
2022-09-01T11:05:52.887Z,69.76
2022-09-01T11:07:14.673Z,70.85
2022-09-01T11:08:29.219Z,69.62
2022-09-01T11:09:42.371Z,70.83
2022-09-01T11:10:50.518Z,70.20
2022-09-01T11:12:12.084Z,69.52
2022-09-01T11:13:15.999Z,70.47
2022-09-01T11:14:22.225Z,70.50
2022-09-01T11:15:33.471Z,68.77
2022-09-01T11:16:47.954Z,66.97
2022-09-01T11:17:51.285Z,67.36
2022-09-01T11:18:53.399Z,68.66
2022-09-01T11:19:58.429Z,68.97
2022-09-01T11:21:35.506Z,67.50
2022-09-01T11:22:41.969Z,67.17
2022-09-01T11:23:44.091Z,66.65
2022-09-01T11:24:54.430Z,66.39
2022-09-01T11:26:21.401Z,66.76
2022-09-01T11:27:41.821Z,65.57
2022-09-01T11:28:43.974Z,64.16
2022-09-01T11:29:56.661Z,65.29
2022-09-01T11:30:59.388Z,64.91
2022-09-01T11:32:01.752Z,65.70
2022-09-01T11:33:09.611Z,65.03
2022-09-01T11:34:21.837Z,64.19
2022-09-01T11:35:25.895Z,63.90
2022-09-01T11:36:30.305Z,64.29
2022-09-01T11:37:33.582Z,65.21
2022-09-01T11:38:46.378Z,65.45
2022-09-01T11:39:53.351Z,65.04
2022-09-01T11:40:57.397Z,65.52
2022-09-01T11:42:04.268Z,65.17
2022-09-01T11:43:16.684Z,66.31
2022-09-01T11:44:23.477Z,66.30
2022-09-01T11:45:30.938Z,66.78
2022-09-01T11:46:35.180Z,67.37
2022-09-01T11:47:39.369Z,66.88
2022-09-01T11:48:46.132Z,66.66
2022-09-01T11:50:02.510Z,67.91
2022-09-01T11:51:05.239Z,68.10
2022-09-01T11:52:07.134Z,68.12
2022-09-01T11:53:10.856Z,68.60
2022-09-01T11:54:13.718Z,68.39
2022-09-01T11:55:28.444Z,68.77
2022-09-01T11:56:30.347Z,67.19
2022-09-01T11:57:37.026Z,68.28
2022-09-01T11:58:42.369Z,68.46
2022-09-01T11:59:44.210Z,68.73
2022-09-01T12:00:46.110Z,68.82
2022-09-01T12:01:47.953Z,68.62
2022-09-01T12:02:51.534Z,70.02
2022-09-01T12:03:53.450Z,69.86
2022-09-01T12:04:56.693Z,68.58
2022-09-01T12:06:04.298Z,66.75
2022-09-01T12:07:08.107Z,64.31
2022-09-01T12:08:14.996Z,63.17
2022-09-01T12:09:16.908Z,63.74
2022-09-01T12:10:29.666Z,63.79
2022-09-01T12:11:33.065Z,63.49
2022-09-01T12:12:36.317Z,62.55
2022-09-01T12:13:40.026Z,61.82
2022-09-01T12:15:04.508Z,63.36
2022-09-01T12:16:21.210Z,62.19
2022-09-01T12:17:23.706Z,63.37
2022-09-01T12:18:28.179Z,59.72
2022-09-01T12:19:35.254Z,61.61
2022-09-01T12:20:39.388Z,62.95
2022-09-01T12:21:45.745Z,61.66
2022-09-01T12:22:47.627Z,62.34
2022-09-01T12:23:49.815Z,60.32
2022-09-01T12:24:53.474Z,59.23
2022-09-01T12:25:56.742Z,55.03
2022-09-01T12:26:59.290Z,58.06
2022-09-01T12:28:01.981Z,60.17
2022-09-01T12:29:04.925Z,57.83
2022-09-01T12:30:07.902Z,59.76
2022-09-01T12:31:15.249Z,56.59
2022-09-01T12:32:17.667Z,56.61
2022-09-01T12:33:24.171Z,57.44
2022-09-01T12:34:29.300Z,55.61
2022-09-01T12:35:31.095Z,54.88
2022-09-01T12:36:37.346Z,54.47
2022-09-01T12:37:39.274Z,57.05
2022-09-01T12:38:41.209Z,56.36
2022-09-01T12:39:48.238Z,53.02
2022-09-01T12:40:51.301Z,54.69
2022-09-01T12:42:05.698Z,55.04
2022-09-01T12:43:07.908Z,54.46
2022-09-01T12:44:30.514Z,54.39
2022-09-01T12:45:38.616Z,52.62
2022-09-01T12:46:42.635Z,52.31
2022-09-01T12:47:50.370Z,54.11
2022-09-01T12:48:52.422Z,55.98
2022-09-01T12:49:55.684Z,52.10
2022-09-01T12:50:59.519Z,53.04
2022-09-01T12:52:11.070Z,56.62
2022-09-01T12:53:15.584Z,55.49
2022-09-01T12:54:25.098Z,56.89
2022-09-01T12:55:50.538Z,58.12
2022-09-01T12:56:52.538Z,58.02
2022-09-01T12:57:59.221Z,59.23
2022-09-01T12:59:11.963Z,59.15
2022-09-01T13:00:20.063Z,58.80
2022-09-01T13:01:26.667Z,59.22
2022-09-01T13:02:33.840Z,59.15
2022-09-01T13:03:36.296Z,59.87
2022-09-01T13:04:38.175Z,59.61
2022-09-01T13:05:44.151Z,59.98
2022-09-01T13:06:45.960Z,60.51
2022-09-01T13:07:47.962Z,60.50
2022-09-01T13:08:49.780Z,60.61
2022-09-01T13:09:51.647Z,60.63
2022-09-01T13:10:54.750Z,60.52
2022-09-01T13:12:10.050Z,60.77
2022-09-01T13:13:12.624Z,61.16
2022-09-01T13:14:15.619Z,61.41
2022-09-01T13:15:18.215Z,61.54
2022-09-01T13:16:20.035Z,61.19
2022-09-01T13:17:22.117Z,61.39
2022-09-01T13:18:25.681Z,62.24
2022-09-01T13:19:30.451Z,62.02
2022-09-01T13:20:32.904Z,62.64
2022-09-01T13:21:35.664Z,63.08
2022-09-01T13:22:38.534Z,62.97
2022-09-01T13:23:40.489Z,63.48
2022-09-01T13:24:42.298Z,63.43
2022-09-01T13:25:47.038Z,63.76
2022-09-01T13:28:18.331Z,64.51
2022-09-01T13:29:21.100Z,64.76
2022-09-01T13:30:24.460Z,64.65
2022-09-01T13:31:30.180Z,65.26
2022-09-01T13:32:32.293Z,65.13
2022-09-01T13:34:09.160Z,65.51
2022-09-01T13:34:57.113Z,66.25
2022-09-01T13:35:59.550Z,65.87
2022-09-01T13:37:01.488Z,65.94
2022-09-01T13:38:03.404Z,65.86
2022-09-01T13:39:05.342Z,66.32
2022-09-01T13:40:09.375Z,66.09
2022-09-01T13:41:11.661Z,66.31
2022-09-01T13:42:14.858Z,65.78
2022-09-01T13:43:20.243Z,66.07
2022-09-01T13:44:22.154Z,66.62
2022-09-01T13:45:27.908Z,67.04
2022-09-01T13:46:29.882Z,66.59
2022-09-01T13:47:31.884Z,67.20
2022-09-01T13:50:06.944Z,67.52
2022-09-01T13:51:15.541Z,67.47
2022-09-01T13:52:19.455Z,67.84
2022-09-01T13:53:22.477Z,68.88
2022-09-01T13:54:24.316Z,69.42
2022-09-01T13:55:28.220Z,69.21
2022-09-01T13:56:30.044Z,69.20
2022-09-01T13:57:36.200Z,69.26
2022-09-01T13:58:38.565Z,69.31
2022-09-01T13:59:42.106Z,69.47
2022-09-01T14:00:45.528Z,69.70
2022-09-01T14:01:47.374Z,70.08
2022-09-01T14:02:50.634Z,70.97
2022-09-01T14:03:55.100Z,71.08
2022-09-01T14:05:00.111Z,71.23
2022-09-01T14:06:02.093Z,71.52
2022-09-01T14:07:04.064Z,72.05
2022-09-01T14:08:06.997Z,72.07
2022-09-01T14:09:08.802Z,72.65
2022-09-01T14:10:10.849Z,72.86
2022-09-01T14:11:16.542Z,72.69
2022-09-01T14:12:18.366Z,72.48
2022-09-01T14:13:21.441Z,73.42
2022-09-01T14:14:23.639Z,73.25
2022-09-01T14:15:27.458Z,73.48
2022-09-01T14:16:29.604Z,73.29
2022-09-01T14:17:31.542Z,73.91
2022-09-01T14:18:37.025Z,74.03
2022-09-01T14:19:39.229Z,74.51
2022-09-01T14:20:43.063Z,74.65
2022-09-01T14:21:45.409Z,74.95
2022-09-01T14:22:48.552Z,75.10
2022-09-01T14:23:50.359Z,74.83
2022-09-01T14:24:52.770Z,74.85
2022-09-01T14:25:55.072Z,74.53
2022-09-01T14:26:56.974Z,74.49
2022-09-01T14:27:58.906Z,73.85
2022-09-01T14:29:03.148Z,74.00
2022-09-01T14:30:06.753Z,73.68
2022-09-01T14:31:10.047Z,74.12
2022-09-01T14:32:11.842Z,73.63